Terminal Aerodrome Forecast
Issued by NWS

Home | Current Version | Previous Version | Text Only | Print | Product List | Glossary On
Versions: 1 2 3 4 5 6 7 8 9 10 11 12 13 14 15 16 17 18 19 20 21 22 23 24 25 26 27 28 29 30 31 32 33 34
507
FTUS46 KLOX 141126
TAFLAX
TAF
KLAX 141126Z 1412/1518 VRB03KT 1/4SM FG VV001
     FM141400 VRB03KT 1SM BR SCT001
     FM141600 36006KT P6SM SKC
     FM142100 28010KT P6SM SCT250
     FM150600 VRB03KT P6SM SCT250
     FM151100 04008KT P6SM SCT250=

USA.gov is the U.S. government's official web portal to all federal, state and local government web resources and services.